createdAt,value
2019-02-21T00:02:22.142Z,36.20
2019-02-21T00:04:54.796Z,36.23
2019-02-21T00:07:23.560Z,37.37
2019-02-21T00:09:54.433Z,35.50
2019-02-21T00:12:23.076Z,37.60
2019-02-21T00:14:52.029Z,38.90
2019-02-21T00:17:23.175Z,47.47
2019-02-21T00:19:53.668Z,39.60
2019-02-21T00:22:25.143Z,43.17
2019-02-21T00:24:53.593Z,41.97
2019-02-21T00:27:22.060Z,41.80
2019-02-21T00:29:50.602Z,44.73
2019-02-21T00:32:20.092Z,40.90
2019-02-21T00:34:48.858Z,45.77
2019-02-21T00:37:17.457Z,43.37
2019-02-21T00:39:46.026Z,40.70
2019-02-21T00:42:14.588Z,41.47
2019-02-21T00:44:44.587Z,43.30
2019-02-21T00:47:13.194Z,41.07
2019-02-21T00:49:42.906Z,45.03
2019-02-21T00:52:11.410Z,46.87
2019-02-21T00:54:39.942Z,46.58
2019-02-21T00:57:08.567Z,42.30
2019-02-21T00:59:37.037Z,47.63
2019-02-21T01:02:05.591Z,44.87
2019-02-21T01:04:35.258Z,42.45
2019-02-21T01:07:03.932Z,52.03
2019-02-21T01:09:33.421Z,43.77
2019-02-21T01:12:03.499Z,46.37
2019-02-21T01:14:32.039Z,45.77
2019-02-21T01:17:00.538Z,47.45
2019-02-21T01:19:29.067Z,52.43
2019-02-21T01:21:57.535Z,49.83
2019-02-21T01:24:26.050Z,47.90
2019-02-21T01:26:54.503Z,47.07
2019-02-21T01:29:22.961Z,50.80
2019-02-21T01:31:51.583Z,49.83
2019-02-21T01:34:20.052Z,51.87
2019-02-21T01:36:51.323Z,49.60
2019-02-21T01:39:20.793Z,50.57
2019-02-21T01:41:50.806Z,49.38
2019-02-21T01:44:20.516Z,46.03
2019-02-21T01:46:49.691Z,54.07
2019-02-21T01:49:22.262Z,51.03
2019-02-21T01:51:50.733Z,55.70
2019-02-21T01:54:19.293Z,49.17
2019-02-21T01:56:47.833Z,51.33
2019-02-21T01:59:16.535Z,53.13
2019-02-21T02:01:47.986Z,55.77
2019-02-21T02:04:16.459Z,53.30
2019-02-21T02:06:44.949Z,47.57
2019-02-21T02:09:13.680Z,54.47
2019-02-21T02:11:42.277Z,55.17
2019-02-21T02:14:10.812Z,49.67
2019-02-21T02:16:40.425Z,50.17
2019-02-21T02:19:09.117Z,52.43
2019-02-21T02:21:40.572Z,53.97
2019-02-21T02:24:09.053Z,53.28
2019-02-21T02:26:37.514Z,60.80
2019-02-21T02:29:06.025Z,54.37
2019-02-21T02:31:37.208Z,54.07
2019-02-21T02:34:05.670Z,58.10
2019-02-21T02:36:34.173Z,57.05
2019-02-21T02:39:02.754Z,61.07
2019-02-21T02:41:31.571Z,57.00
2019-02-21T02:44:00.137Z,57.90
2019-02-21T02:46:30.241Z,53.43
2019-02-21T02:49:00.018Z,58.43
2019-02-21T02:51:31.517Z,57.50
2019-02-21T02:54:05.586Z,53.07
2019-02-21T02:56:34.116Z,55.83
2019-02-21T02:59:02.613Z,57.50
2019-02-21T03:01:34.823Z,59.53
2019-02-21T03:04:03.003Z,51.40
2019-02-21T03:06:31.693Z,61.20
2019-02-21T03:09:00.182Z,60.70
2019-02-21T03:11:28.661Z,55.33
2019-02-21T03:13:59.654Z,56.67
2019-02-21T03:16:28.120Z,58.50
2019-02-21T03:18:59.622Z,59.03
2019-02-21T03:21:29.662Z,58.05
2019-02-21T03:23:58.138Z,60.30
2019-02-21T03:26:26.596Z,58.47
2019-02-21T03:28:56.114Z,58.13
2019-02-21T03:31:24.706Z,54.83
2019-02-21T03:33:56.567Z,58.05
2019-02-21T03:36:25.111Z,57.53
2019-02-21T03:38:53.665Z,56.97
2019-02-21T03:41:23.741Z,60.45
2019-02-21T03:43:54.989Z,65.30
2019-02-21T03:46:23.554Z,61.90
2019-02-21T03:48:52.194Z,68.67
2019-02-21T03:51:20.680Z,59.07
2019-02-21T03:53:49.213Z,68.02
2019-02-21T03:56:17.670Z,70.10
2019-02-21T03:58:46.234Z,73.20
2019-02-21T04:01:14.698Z,66.47
2019-02-21T04:03:43.567Z,63.83
2019-02-21T04:06:12.366Z,66.17
2019-02-21T04:08:40.835Z,66.87
2019-02-21T04:11:09.373Z,60.83
2019-02-21T04:13:37.999Z,64.73
2019-02-21T04:16:08.109Z,67.67
2019-02-21T04:18:39.466Z,66.40
2019-02-21T04:21:07.963Z,66.00
2019-02-21T04:23:37.555Z,64.30
2019-02-21T04:26:06.013Z,67.10
2019-02-21T04:28:36.589Z,64.57
2019-02-21T04:31:06.608Z,71.77
2019-02-21T04:33:35.070Z,70.28
2019-02-21T04:36:03.637Z,66.40
2019-02-21T04:38:34.562Z,70.80
2019-02-21T04:41:04.375Z,67.15
2019-02-21T04:43:35.780Z,73.40
2019-02-21T04:46:07.329Z,68.37
2019-02-21T04:48:35.803Z,69.87
2019-02-21T04:51:06.834Z,73.40
2019-02-21T04:53:35.609Z,73.60
2019-02-21T04:56:05.709Z,71.30
2019-02-21T04:58:34.283Z,70.27
2019-02-21T05:01:02.911Z,71.87
2019-02-21T05:03:31.613Z,71.83
2019-02-21T05:06:00.223Z,77.10
2019-02-21T05:08:29.773Z,76.97
2019-02-21T05:10:58.240Z,75.35
2019-02-21T05:13:26.723Z,83.65
2019-02-21T05:15:56.721Z,79.97
2019-02-21T05:18:26.559Z,80.43
2019-02-21T05:20:56.671Z,83.93
2019-02-21T05:23:26.381Z,87.97
2019-02-21T05:25:58.758Z,85.97
2019-02-21T05:28:28.975Z,83.45
2019-02-21T05:31:06.886Z,83.53
2019-02-21T05:33:51.898Z,83.33
2019-02-21T05:36:38.419Z,81.67
2019-02-21T05:39:15.703Z,80.27
2019-02-21T05:41:48.526Z,82.93
2019-02-21T05:44:21.795Z,78.35
2019-02-21T05:47:00.365Z,85.33
2019-02-21T05:49:39.349Z,87.37
2019-02-21T05:52:19.973Z,88.40
2019-02-21T05:54:50.473Z,85.83
2019-02-21T05:57:31.354Z,96.30
2019-02-21T06:00:16.237Z,94.67
2019-02-21T06:02:53.320Z,96.80
2019-02-21T06:05:31.206Z,94.77
2019-02-21T06:08:17.433Z,101.27
2019-02-21T06:11:05.744Z,100.77
2019-02-21T06:13:39.931Z,99.05
2019-02-21T06:16:11.713Z,100.00
2019-02-21T06:18:57.151Z,99.75
2019-02-21T06:21:33.098Z,96.97
2019-02-21T06:24:03.385Z,92.80
2019-02-21T06:26:34.646Z,95.07
2019-02-21T06:29:10.745Z,94.27
2019-02-21T06:31:41.846Z,96.37
2019-02-21T06:34:10.340Z,96.93
2019-02-21T06:36:38.825Z,100.67
2019-02-21T06:39:10.194Z,100.30
2019-02-21T06:41:42.649Z,99.30
2019-02-21T06:44:12.069Z,97.30
2019-02-21T06:46:41.512Z,104.63
2019-02-21T06:49:10.002Z,103.90
2019-02-21T06:51:41.550Z,99.13
2019-02-21T06:54:14.954Z,100.43
2019-02-21T06:56:44.388Z,95.47
2019-02-21T06:59:12.852Z,93.87
2019-02-21T07:01:44.736Z,95.80
2019-02-21T07:04:13.379Z,89.83
2019-02-21T07:06:46.522Z,92.47
2019-02-21T07:09:15.092Z,98.87
2019-02-21T07:11:45.948Z,103.70
2019-02-21T07:14:13.926Z,97.50
2019-02-21T07:16:47.338Z,97.40
2019-02-21T07:19:18.808Z,93.47
2019-02-21T07:21:48.724Z,92.57
2019-02-21T07:24:19.889Z,94.53
2019-02-21T07:26:48.369Z,85.30
2019-02-21T07:29:20.960Z,87.95
2019-02-21T07:31:54.573Z,100.47
2019-02-21T07:34:23.240Z,91.87
2019-02-21T07:36:51.777Z,90.30
2019-02-21T07:39:20.925Z,92.15
2019-02-21T07:41:50.668Z,84.97
2019-02-21T07:44:19.278Z,91.50
2019-02-21T07:46:47.884Z,93.40
2019-02-21T07:49:16.431Z,88.62
2019-02-21T07:51:46.443Z,88.73
2019-02-21T07:54:17.660Z,89.43
2019-02-21T07:56:46.117Z,85.80
2019-02-21T07:59:14.704Z,81.70
2019-02-21T08:01:43.203Z,76.47
2019-02-21T08:04:12.439Z,84.43
2019-02-21T08:06:41.108Z,82.10
2019-02-21T08:09:09.695Z,84.33
2019-02-21T08:11:39.459Z,78.37
2019-02-21T08:14:09.647Z,81.90
2019-02-21T08:16:57.576Z,79.40
2019-02-21T08:19:26.109Z,76.53
2019-02-21T08:21:54.610Z,70.93
2019-02-21T08:24:23.178Z,69.37
2019-02-21T08:26:51.643Z,69.87
2019-02-21T08:29:20.871Z,74.10
2019-02-21T08:31:49.525Z,73.20
2019-02-21T08:34:22.452Z,78.13
2019-02-21T08:36:50.943Z,72.27
2019-02-21T08:39:19.653Z,73.50
2019-02-21T08:41:48.111Z,73.53
2019-02-21T08:44:17.085Z,71.97
2019-02-21T08:46:47.301Z,75.70
2019-02-21T08:49:15.765Z,78.33
2019-02-21T08:51:44.271Z,76.77
2019-02-21T08:54:13.933Z,76.53
2019-02-21T08:56:44.115Z,72.27
2019-02-21T08:59:12.801Z,78.15
2019-02-21T09:01:41.353Z,73.13
2019-02-21T09:04:26.371Z,77.47
2019-02-21T09:06:46.423Z,71.77
2019-02-21T09:09:14.899Z,76.63
2019-02-21T09:11:45.881Z,75.57
2019-02-21T09:14:14.583Z,71.90
2019-02-21T09:16:43.335Z,71.80
2019-02-21T09:19:12.786Z,70.70
2019-02-21T09:21:43.950Z,80.33
2019-02-21T09:24:15.275Z,68.93
2019-02-21T09:26:45.681Z,73.97
2019-02-21T09:29:15.213Z,72.30
2019-02-21T09:31:44.737Z,68.30
2019-02-21T09:34:20.898Z,68.67
2019-02-21T09:36:44.355Z,72.15
2019-02-21T09:39:16.039Z,74.07
2019-02-21T09:41:44.431Z,68.47
2019-02-21T09:44:18.144Z,63.17
2019-02-21T09:46:46.204Z,70.60
2019-02-21T09:49:14.779Z,67.70
2019-02-21T09:51:44.640Z,65.90
2019-02-21T09:54:22.745Z,64.37
2019-02-21T09:56:52.811Z,65.73
2019-02-21T09:59:21.564Z,58.47
2019-02-21T10:01:51.088Z,67.27
2019-02-21T10:04:31.621Z,53.63
2019-02-21T10:06:53.164Z,52.50
2019-02-21T10:09:22.891Z,56.43
2019-02-21T10:11:52.373Z,56.83
2019-02-21T10:14:21.642Z,53.27
2019-02-21T10:16:51.469Z,59.50
2019-02-21T10:19:20.054Z,52.10
2019-02-21T10:21:50.486Z,57.70
2019-02-21T10:24:19.076Z,56.53
2019-02-21T10:26:47.552Z,54.43
2019-02-21T10:29:17.606Z,59.83
2019-02-21T10:31:47.791Z,50.93
2019-02-21T10:34:17.395Z,54.70
2019-02-21T10:36:48.882Z,48.27
2019-02-21T10:39:18.378Z,50.63
2019-02-21T10:41:46.945Z,54.10
2019-02-21T10:44:15.723Z,50.60
2019-02-21T10:46:44.216Z,46.42
2019-02-21T10:49:12.676Z,49.47
2019-02-21T10:51:42.695Z,52.83
2019-02-21T10:54:11.299Z,48.87
2019-02-21T10:56:43.052Z,51.93
2019-02-21T10:59:11.541Z,47.10
2019-02-21T11:01:42.898Z,52.03
2019-02-21T11:04:12.974Z,55.23
2019-02-21T11:06:41.556Z,51.90
2019-02-21T11:09:14.334Z,54.83
2019-02-21T11:11:42.836Z,52.85
2019-02-21T11:14:12.782Z,57.47
2019-02-21T11:16:41.247Z,55.97
2019-02-21T11:19:09.859Z,55.87
2019-02-21T11:21:39.324Z,58.37
2019-02-21T11:24:10.466Z,65.70
2019-02-21T11:26:43.850Z,66.53
2019-02-21T11:29:12.429Z,68.43
2019-02-21T11:31:40.950Z,64.23
2019-02-21T11:34:09.447Z,65.73
2019-02-21T11:36:40.577Z,63.67
2019-02-21T11:39:10.740Z,64.35
2019-02-21T11:42:03.832Z,63.40
2019-02-21T11:44:32.558Z,63.87
2019-02-21T11:47:06.327Z,62.00
2019-02-21T11:49:34.946Z,64.47
2019-02-21T11:52:10.172Z,62.17
2019-02-21T11:54:33.764Z,58.97
2019-02-21T11:57:04.998Z,61.33
2019-02-21T11:59:33.488Z,57.30
2019-02-21T12:02:02.040Z,54.40
2019-02-21T12:04:30.578Z,59.97
2019-02-21T12:07:18.419Z,58.50
2019-02-21T12:09:49.011Z,52.83
2019-02-21T12:12:18.673Z,51.27
2019-02-21T12:14:49.747Z,51.23
2019-02-21T12:17:18.274Z,55.55
2019-02-21T12:19:47.185Z,52.73
2019-02-21T12:22:15.685Z,52.10
2019-02-21T12:24:45.155Z,47.98
2019-02-21T12:27:14.901Z,43.20
2019-02-21T12:29:43.412Z,52.80
2019-02-21T12:32:12.396Z,41.55
2019-02-21T12:34:40.893Z,37.67
2019-02-21T12:37:10.527Z,39.88
2019-02-21T12:39:40.935Z,33.50
2019-02-21T12:42:09.673Z,32.15
2019-02-21T12:44:39.079Z,32.17
2019-02-21T12:47:07.549Z,33.37
2019-02-21T12:49:39.005Z,30.20
2019-02-21T12:52:07.506Z,31.30
2019-02-21T12:54:56.807Z,30.70
2019-02-21T12:57:25.325Z,33.27
2019-02-21T12:59:56.124Z,32.90
2019-02-21T13:02:27.742Z,35.30
2019-02-21T13:04:56.266Z,33.60
2019-02-21T13:07:24.784Z,32.50
2019-02-21T13:09:53.362Z,32.17
2019-02-21T13:12:23.506Z,30.17
2019-02-21T13:14:52.058Z,26.40
2019-02-21T13:17:21.520Z,26.17
2019-02-21T13:19:50.048Z,28.10
2019-02-21T13:22:19.832Z,25.60
2019-02-21T13:24:49.637Z,23.67
2019-02-21T13:27:21.093Z,23.80
2019-02-21T13:29:49.553Z,25.37
2019-02-21T13:32:18.398Z,23.65
2019-02-21T13:34:48.481Z,25.90
2019-02-21T13:37:27.950Z,30.20
2019-02-21T13:39:50.496Z,26.10
2019-02-21T13:42:19.319Z,23.30
2019-02-21T13:44:53.680Z,26.15
2019-02-21T13:47:23.798Z,27.10
2019-02-21T13:49:52.344Z,26.87
2019-02-21T13:52:20.896Z,24.53
2019-02-21T13:54:49.473Z,26.83
2019-02-21T13:57:18.057Z,26.90
2019-02-21T13:59:46.518Z,29.47
2019-02-21T14:02:20.023Z,27.77
2019-02-21T14:04:48.502Z,28.53
2019-02-21T14:07:16.973Z,32.97
2019-02-21T14:09:48.226Z,32.15
2019-02-21T14:12:16.836Z,31.73
2019-02-21T14:14:45.306Z,33.18
2019-02-21T14:17:17.170Z,29.00
2019-02-21T14:19:45.737Z,30.30
2019-02-21T14:22:15.410Z,33.75
2019-02-21T14:24:44.008Z,33.47
2019-02-21T14:27:12.480Z,31.60
2019-02-21T14:29:40.936Z,29.63
2019-02-21T14:32:11.624Z,29.77
2019-02-21T14:34:41.706Z,31.82
2019-02-21T14:37:11.640Z,36.63
2019-02-21T14:39:40.272Z,31.57
2019-02-21T14:42:09.950Z,32.20
2019-02-21T14:44:38.596Z,31.50
2019-02-21T14:47:10.833Z,34.60
2019-02-21T14:49:39.302Z,34.23
2019-02-21T14:52:09.866Z,32.40
2019-02-21T14:54:38.376Z,31.10
2019-02-21T14:57:10.429Z,37.97
2019-02-21T14:59:38.922Z,32.97
2019-02-21T15:02:07.584Z,35.93
2019-02-21T15:04:38.225Z,32.67
2019-02-21T15:07:06.654Z,28.62
2019-02-21T15:09:35.314Z,29.27
2019-02-21T15:12:06.542Z,33.40
2019-02-21T15:14:35.042Z,34.53
2019-02-21T15:17:04.042Z,29.30
2019-02-21T15:19:35.296Z,34.70
2019-02-21T15:22:05.429Z,28.30
2019-02-21T15:24:34.030Z,29.30
2019-02-21T15:27:08.393Z,34.83
2019-02-21T15:29:34.026Z,33.17
2019-02-21T15:32:10.661Z,32.60
2019-02-21T15:34:33.133Z,30.90
2019-02-21T15:37:01.630Z,28.10
2019-02-21T15:39:31.113Z,30.43
2019-02-21T15:42:02.848Z,31.05
2019-02-21T15:44:31.536Z,28.98
2019-02-21T15:47:01.094Z,30.95
2019-02-21T15:49:29.587Z,29.20
2019-02-21T15:51:58.217Z,28.87
2019-02-21T15:54:26.761Z,30.13
2019-02-21T15:56:58.795Z,29.43
2019-02-21T15:59:27.365Z,29.20
2019-02-21T16:01:56.283Z,30.20
2019-02-21T16:04:24.749Z,30.00
2019-02-21T16:06:54.435Z,32.03
2019-02-21T16:09:25.162Z,32.90
2019-02-21T16:11:54.433Z,29.53
2019-02-21T16:14:23.047Z,31.23
2019-02-21T16:16:53.165Z,35.80
2019-02-21T16:19:21.829Z,31.43
2019-02-21T16:21:56.240Z,32.23
2019-02-21T16:24:24.717Z,34.13
2019-02-21T16:26:53.180Z,31.52
2019-02-21T16:29:21.751Z,31.07
2019-02-21T16:31:51.402Z,29.03
2019-02-21T16:34:19.884Z,33.77
2019-02-21T16:36:49.915Z,34.00
2019-02-21T16:39:19.852Z,29.83
2019-02-21T16:41:51.236Z,30.07
2019-02-21T16:44:19.912Z,32.93
2019-02-21T16:46:48.442Z,29.10
2019-02-21T16:49:16.905Z,27.97
2019-02-21T16:51:45.424Z,28.33
2019-02-21T16:54:13.894Z,28.32
2019-02-21T16:56:46.508Z,25.67
2019-02-21T16:59:15.003Z,27.20
2019-02-21T17:01:44.386Z,30.90
2019-02-21T17:04:12.921Z,25.37
2019-02-21T17:06:44.319Z,25.13
2019-02-21T17:09:12.776Z,29.27
2019-02-21T17:11:45.669Z,27.23
2019-02-21T17:14:17.063Z,20.87
2019-02-21T17:16:45.604Z,24.47
2019-02-21T17:19:15.775Z,23.33
2019-02-21T17:21:44.277Z,24.18
2019-02-21T17:24:17.050Z,18.10
2019-02-21T17:26:45.620Z,18.27
2019-02-21T17:29:14.198Z,21.00
2019-02-21T17:31:42.668Z,21.00
2019-02-21T17:34:11.312Z,20.17
2019-02-21T17:36:39.838Z,19.75
2019-02-21T17:39:11.426Z,21.05
2019-02-21T17:41:39.902Z,21.63
2019-02-21T17:44:09.778Z,18.60
2019-02-21T17:46:38.272Z,21.23
2019-02-21T17:49:08.357Z,18.20
2019-02-21T17:51:43.566Z,16.23
2019-02-21T17:54:13.203Z,16.33
2019-02-21T17:56:41.692Z,16.30
2019-02-21T17:59:10.260Z,17.55
2019-02-21T18:01:38.822Z,17.67
2019-02-21T18:04:07.287Z,18.80
2019-02-21T18:06:37.339Z,20.10
2019-02-21T18:09:06.546Z,20.60
2019-02-21T18:11:38.102Z,18.95
2019-02-21T18:14:07.292Z,18.20
2019-02-21T18:16:35.850Z,18.03
2019-02-21T18:19:08.530Z,21.13
2019-02-21T18:21:37.097Z,22.65
2019-02-21T18:24:09.228Z,18.13
2019-02-21T18:26:37.889Z,19.32
2019-02-21T18:29:08.250Z,21.03
2019-02-21T18:31:37.077Z,23.03
2019-02-21T18:34:06.911Z,28.27
2019-02-21T18:36:35.460Z,32.53
2019-02-21T18:39:06.862Z,28.93
2019-02-21T18:41:35.573Z,29.70
2019-02-21T18:44:08.214Z,31.30
2019-02-21T18:46:38.856Z,30.67
2019-02-21T18:49:07.417Z,33.10
2019-02-21T18:51:41.032Z,33.07
2019-02-21T18:54:09.302Z,30.85
2019-02-21T18:56:39.318Z,31.43
2019-02-21T18:59:07.866Z,33.35
2019-02-21T19:01:36.378Z,34.83
2019-02-21T19:04:04.849Z,35.00
2019-02-21T19:06:36.361Z,37.63
2019-02-21T19:09:07.077Z,36.83
2019-02-21T19:11:35.555Z,36.47
2019-02-21T19:14:05.236Z,38.48
2019-02-21T19:16:37.011Z,35.50
2019-02-21T19:19:07.012Z,39.30
2019-02-21T19:21:35.555Z,37.40
2019-02-21T19:24:07.135Z,39.00
2019-02-21T19:26:35.744Z,40.20
2019-02-21T19:29:06.946Z,34.38
2019-02-21T19:31:35.520Z,39.37
2019-02-21T19:34:07.299Z,38.83
2019-02-21T19:36:41.711Z,37.10
2019-02-21T19:39:10.360Z,42.30
2019-02-21T19:41:38.827Z,45.17
2019-02-21T19:44:09.528Z,35.97
2019-02-21T19:46:40.953Z,39.48
2019-02-21T19:49:12.483Z,36.35
2019-02-21T19:51:41.025Z,42.37
2019-02-21T19:54:12.775Z,41.43
2019-02-21T19:56:41.315Z,45.23
2019-02-21T19:59:12.361Z,37.80
2019-02-21T20:01:43.948Z,44.43
2019-02-21T20:04:12.761Z,43.17
2019-02-21T20:06:43.860Z,38.47
2019-02-21T20:09:14.081Z,47.07
2019-02-21T20:11:42.743Z,43.43
2019-02-21T20:14:12.556Z,43.17
2019-02-21T20:16:42.247Z,44.93
2019-02-21T20:19:13.537Z,40.25
2019-02-21T20:21:42.076Z,39.20
2019-02-21T20:24:13.837Z,40.77
2019-02-21T20:26:42.421Z,42.07
2019-02-21T20:29:11.962Z,40.87
2019-02-21T20:31:40.466Z,40.65
2019-02-21T20:34:12.982Z,41.20
2019-02-21T20:36:50.636Z,47.13
2019-02-21T20:39:12.004Z,39.57
2019-02-21T20:41:40.504Z,43.20
2019-02-21T20:44:12.276Z,40.77
2019-02-21T20:46:42.814Z,36.23
2019-02-21T20:49:12.302Z,43.33
2019-02-21T20:51:41.795Z,41.70
2019-02-21T20:54:12.931Z,41.70
2019-02-21T20:56:43.790Z,47.53
2019-02-21T20:59:14.205Z,40.73
2019-02-21T21:01:44.070Z,50.80
2019-02-21T21:04:12.537Z,47.93
2019-02-21T21:06:41.017Z,47.33
2019-02-21T21:09:09.680Z,49.47
2019-02-21T21:11:41.954Z,48.93
2019-02-21T21:14:11.730Z,44.67
2019-02-21T21:16:40.404Z,55.90
2019-02-21T21:19:11.553Z,57.67
2019-02-21T21:21:41.534Z,56.03
2019-02-21T21:24:12.835Z,59.70
2019-02-21T21:26:41.300Z,57.27
2019-02-21T21:29:12.812Z,69.43
2019-02-21T21:31:43.686Z,77.33
2019-02-21T21:34:12.582Z,84.67
2019-02-21T21:36:41.119Z,77.97
2019-02-21T21:39:09.897Z,78.63
2019-02-21T21:41:40.625Z,87.83
2019-02-21T21:44:09.210Z,91.17
2019-02-21T21:46:39.394Z,81.90
2019-02-21T21:49:11.713Z,90.73
2019-02-21T21:51:40.248Z,95.23
2019-02-21T21:54:08.894Z,88.95
2019-02-21T21:56:37.419Z,82.43
2019-02-21T21:59:07.018Z,94.80
2019-02-21T22:01:36.401Z,93.43
2019-02-21T22:04:04.930Z,94.87
2019-02-21T22:06:33.402Z,98.00
2019-02-21T22:09:05.006Z,96.97
2019-02-21T22:11:36.597Z,90.80
2019-02-21T22:14:05.044Z,99.73
2019-02-21T22:16:35.498Z,99.77
2019-02-21T22:19:03.956Z,100.45
2019-02-21T22:21:33.553Z,97.07
2019-02-21T22:24:02.114Z,111.17
2019-02-21T22:26:32.127Z,96.70
2019-02-21T22:29:00.660Z,96.10
2019-02-21T22:31:29.233Z,100.40
2019-02-21T22:33:57.765Z,106.80
2019-02-21T22:36:27.942Z,107.80
2019-02-21T22:38:56.541Z,105.50
2019-02-21T22:41:25.138Z,115.27
2019-02-21T22:43:53.793Z,108.07
2019-02-21T22:46:25.037Z,109.17
2019-02-21T22:48:53.635Z,123.73
2019-02-21T22:51:22.533Z,114.67
2019-02-21T22:53:52.579Z,116.00
2019-02-21T22:56:21.041Z,135.73
2019-02-21T22:58:49.549Z,146.70
2019-02-21T23:01:21.350Z,139.77
2019-02-21T23:03:53.977Z,141.07
2019-02-21T23:06:37.088Z,152.57
2019-02-21T23:09:09.224Z,143.33
2019-02-21T23:11:43.709Z,147.67
2019-02-21T23:14:14.660Z,137.73
2019-02-21T23:16:44.621Z,135.07
2019-02-21T23:19:13.153Z,130.93
2019-02-21T23:21:41.788Z,126.57
2019-02-21T23:24:10.468Z,133.65
2019-02-21T23:26:41.206Z,123.23
2019-02-21T23:29:09.845Z,130.93
2019-02-21T23:34:37.242Z,122.80
2019-02-21T23:37:05.817Z,118.83
2019-02-21T23:39:38.461Z,125.60
2019-02-21T23:42:04.592Z,123.10
2019-02-21T23:44:34.644Z,119.75
2019-02-21T23:47:08.944Z,128.90
2019-02-21T23:49:37.432Z,124.37
2019-02-21T23:52:05.930Z,116.00
2019-02-21T23:54:34.402Z,139.90
2019-02-21T23:57:03.209Z,120.53
2019-02-21T23:59:33.992Z,129.20
